sensor_id;sensor_type;location;lat;lon;timestamp;pressure;altitude;pressure_sealevel;temperature;humidity
11672;BME280;5892;43.412;24.612;2022-08-19T00:01:56;99474.66;;;27.06;53.21
11672;BME280;5892;43.412;24.612;2022-08-19T00:04:26;99467.66;;;26.98;53.43
11672;BME280;5892;43.412;24.612;2022-08-19T00:06:55;99463.34;;;26.93;53.91
11672;BME280;5892;43.412;24.612;2022-08-19T00:09:29;99471.91;;;26.90;54.20
11672;BME280;5892;43.412;24.612;2022-08-19T00:12:19;99474.16;;;26.79;54.46
11672;BME280;5892;43.412;24.612;2022-08-19T00:15:07;99355.09;;;25.92;54.67
11672;BME280;5892;43.412;24.612;2022-08-19T00:17:51;99431.75;;;26.41;54.83
11672;BME280;5892;43.412;24.612;2022-08-19T00:20:20;99402.06;;;26.24;54.96
11672;BME280;5892;43.412;24.612;2022-08-19T00:23:07;99408.44;;;26.08;55.18
11672;BME280;5892;43.412;24.612;2022-08-19T00:25:48;99478.63;;;26.76;54.88
11672;BME280;5892;43.412;24.612;2022-08-19T00:28:16;99481.44;;;26.76;54.86
11672;BME280;5892;43.412;24.612;2022-08-19T00:30:43;99465.91;;;26.55;55.26
11672;BME280;5892;43.412;24.612;2022-08-19T00:33:25;99473.53;;;26.55;55.49
11672;BME280;5892;43.412;24.612;2022-08-19T00:35:52;99486.09;;;26.50;55.86
11672;BME280;5892;43.412;24.612;2022-08-19T00:38:23;99389.50;;;25.96;56.16
11672;BME280;5892;43.412;24.612;2022-08-19T00:44:51;99481.88;;;26.42;56.92
11672;BME280;5892;43.412;24.612;2022-08-19T00:47:43;99493.81;;;26.30;57.31
11672;BME280;5892;43.412;24.612;2022-08-19T00:50:15;99485.75;;;26.32;57.60
11672;BME280;5892;43.412;24.612;2022-08-19T00:52:46;99482.75;;;26.39;57.25
11672;BME280;5892;43.412;24.612;2022-08-19T00:55:37;99486.34;;;26.40;57.52
11672;BME280;5892;43.412;24.612;2022-08-19T00:58:28;99499.63;;;26.20;57.84
11672;BME280;5892;43.412;24.612;2022-08-19T01:00:57;99500.84;;;26.19;57.88
11672;BME280;5892;43.412;24.612;2022-08-19T01:03:38;99496.78;;;26.03;57.95
11672;BME280;5892;43.412;24.612;2022-08-19T01:06:07;99490.31;;;26.06;58.35
11672;BME280;5892;43.412;24.612;2022-08-19T01:08:34;99499.06;;;26.08;58.71
11672;BME280;5892;43.412;24.612;2022-08-19T01:14:45;99530.91;;;26.02;59.37
11672;BME280;5892;43.412;24.612;2022-08-19T01:17:16;99502.53;;;25.96;59.94
11672;BME280;5892;43.412;24.612;2022-08-19T01:19:45;99485.72;;;25.77;59.70
11672;BME280;5892;43.412;24.612;2022-08-19T01:22:17;99507.53;;;25.89;60.38
11672;BME280;5892;43.412;24.612;2022-08-19T01:24:49;99508.53;;;25.79;60.29
11672;BME280;5892;43.412;24.612;2022-08-19T01:27:19;99506.81;;;25.85;60.76
11672;BME280;5892;43.412;24.612;2022-08-19T01:29:46;99501.63;;;25.83;60.81
11672;BME280;5892;43.412;24.612;2022-08-19T01:32:16;99410.22;;;25.07;60.98
11672;BME280;5892;43.412;24.612;2022-08-19T01:34:45;99503.06;;;25.71;61.13
11672;BME280;5892;43.412;24.612;2022-08-19T01:37:14;99449.75;;;25.32;61.20
11672;BME280;5892;43.412;24.612;2022-08-19T01:42:44;99514.16;;;25.79;61.01
11672;BME280;5892;43.412;24.612;2022-08-19T01:45:11;99482.31;;;25.46;61.76
11672;BME280;5892;43.412;24.612;2022-08-19T01:47:40;99550.44;;;25.46;62.76
11672;BME280;5892;43.412;24.612;2022-08-19T01:50:10;99529.22;;;25.45;62.92
11672;BME280;5892;43.412;24.612;2022-08-19T02:09:16;99510.94;;;25.17;63.17
11672;BME280;5892;43.412;24.612;2022-08-19T02:12:03;99530.63;;;25.33;63.23
11672;BME280;5892;43.412;24.612;2022-08-19T02:38:30;99533.88;;;25.09;65.22
11672;BME280;5892;43.412;24.612;2022-08-19T02:41:00;99525.13;;;25.07;65.28
11672;BME280;5892;43.412;24.612;2022-08-19T02:43:32;99502.75;;;24.80;66.02
11672;BME280;5892;43.412;24.612;2022-08-19T02:46:11;99527.81;;;24.91;66.12
11672;BME280;5892;43.412;24.612;2022-08-19T02:48:55;99535.84;;;24.88;66.74
11672;BME280;5892;43.412;24.612;2022-08-19T02:51:27;99526.31;;;24.82;66.34
11672;BME280;5892;43.412;24.612;2022-08-19T02:53:58;99538.31;;;24.83;66.20
11672;BME280;5892;43.412;24.612;2022-08-19T03:03:14;99395.03;;;23.84;66.20
11672;BME280;5892;43.412;24.612;2022-08-19T03:12:06;99556.81;;;24.77;67.25
11672;BME280;5892;43.412;24.612;2022-08-19T03:14:34;99554.50;;;24.72;67.05
11672;BME280;5892;43.412;24.612;2022-08-19T03:17:01;99568.50;;;24.72;67.50
11672;BME280;5892;43.412;24.612;2022-08-19T03:19:35;99578.50;;;24.73;67.33
11672;BME280;5892;43.412;24.612;2022-08-19T03:22:35;99488.09;;;24.19;67.70
11672;BME280;5892;43.412;24.612;2022-08-19T03:25:31;99556.25;;;24.62;67.77
11672;BME280;5892;43.412;24.612;2022-08-19T03:28:06;99560.22;;;24.65;67.15
11672;BME280;5892;43.412;24.612;2022-08-19T03:30:54;99584.25;;;24.62;67.65
11672;BME280;5892;43.412;24.612;2022-08-19T03:33:24;99529.91;;;24.33;67.40
11672;BME280;5892;43.412;24.612;2022-08-19T03:36:07;99570.50;;;24.71;67.60
11672;BME280;5892;43.412;24.612;2022-08-19T03:38:36;99565.75;;;24.68;67.79
11672;BME280;5892;43.412;24.612;2022-08-19T03:41:14;99456.47;;;23.91;68.19
11672;BME280;5892;43.412;24.612;2022-08-19T03:50:20;99539.22;;;24.76;67.04
11672;BME280;5892;43.412;24.612;2022-08-19T03:52:50;99576.84;;;25.25;66.16
11672;BME280;5892;43.412;24.612;2022-08-19T03:55:40;99530.59;;;25.14;65.18
11672;BME280;5892;43.412;24.612;2022-08-19T03:58:08;99553.50;;;25.32;64.45
11672;BME280;5892;43.412;24.612;2022-08-19T04:01:09;99502.38;;;25.24;63.89
11672;BME280;5892;43.412;24.612;2022-08-19T04:03:50;99583.16;;;26.15;62.79
11672;BME280;5892;43.412;24.612;2022-08-19T04:06:24;99593.75;;;26.28;62.75
11672;BME280;5892;43.412;24.612;2022-08-19T04:08:56;99586.38;;;26.53;61.58
11672;BME280;5892;43.412;24.612;2022-08-19T04:11:26;99546.50;;;26.42;60.64
11672;BME280;5892;43.412;24.612;2022-08-19T04:13:55;99537.91;;;26.66;58.99
11672;BME280;5892;43.412;24.612;2022-08-19T04:16:25;99588.81;;;27.36;58.11
11672;BME280;5892;43.412;24.612;2022-08-19T04:18:56;99592.13;;;27.47;57.48
11672;BME280;5892;43.412;24.612;2022-08-19T04:21:30;99582.38;;;27.52;56.88
11672;BME280;5892;43.412;24.612;2022-08-19T04:24:01;99598.72;;;27.86;56.36
11672;BME280;5892;43.412;24.612;2022-08-19T04:26:31;99569.59;;;27.92;55.73
11672;BME280;5892;43.412;24.612;2022-08-19T04:29:06;99600.22;;;28.19;55.07
11672;BME280;5892;43.412;24.612;2022-08-19T04:31:34;99605.09;;;28.44;53.99
11672;BME280;5892;43.412;24.612;2022-08-19T04:34:04;99594.50;;;28.35;54.37
11672;BME280;5892;43.412;24.612;2022-08-19T04:36:36;99567.06;;;28.10;54.61
11672;BME280;5892;43.412;24.612;2022-08-19T04:39:08;99602.53;;;28.37;54.37
11672;BME280;5892;43.412;24.612;2022-08-19T04:41:36;99600.63;;;28.84;52.90
11672;BME280;5892;43.412;24.612;2022-08-19T04:44:20;99587.47;;;28.81;52.95
11672;BME280;5892;43.412;24.612;2022-08-19T04:46:51;99591.84;;;28.82;52.99
11672;BME280;5892;43.412;24.612;2022-08-19T04:49:22;99575.03;;;29.04;52.26
11672;BME280;5892;43.412;24.612;2022-08-19T04:51:53;99537.38;;;28.85;51.99
11672;BME280;5892;43.412;24.612;2022-08-19T04:54:22;99598.53;;;29.48;51.45
11672;BME280;5892;43.412;24.612;2022-08-19T04:56:51;99589.00;;;29.67;50.63
11672;BME280;5892;43.412;24.612;2022-08-19T04:59:21;99598.94;;;29.72;50.55
11672;BME280;5892;43.412;24.612;2022-08-19T05:01:49;99595.63;;;29.73;50.26
11672;BME280;5892;43.412;24.612;2022-08-19T05:04:19;99590.50;;;29.94;49.75
11672;BME280;5892;43.412;24.612;2022-08-19T05:06:47;99598.88;;;30.28;49.43
11672;BME280;5892;43.412;24.612;2022-08-19T05:09:17;99596.28;;;30.43;48.50
11672;BME280;5892;43.412;24.612;2022-08-19T05:11:46;99596.25;;;30.55;48.59
11672;BME280;5892;43.412;24.612;2022-08-19T05:14:15;99544.34;;;30.18;48.09
11672;BME280;5892;43.412;24.612;2022-08-19T05:16:42;99605.31;;;30.81;47.40
11672;BME280;5892;43.412;24.612;2022-08-19T05:19:09;99596.09;;;30.99;46.77
11672;BME280;5892;43.412;24.612;2022-08-19T05:21:54;99600.56;;;31.09;46.58
11672;BME280;5892;43.412;24.612;2022-08-19T05:24:40;99573.53;;;31.17;45.93
11672;BME280;5892;43.412;24.612;2022-08-19T05:27:08;99564.25;;;31.26;45.75
11672;BME280;5892;43.412;24.612;2022-08-19T05:29:35;99568.06;;;31.50;45.39
11672;BME280;5892;43.412;24.612;2022-08-19T05:32:04;99546.38;;;31.56;44.86
11672;BME280;5892;43.412;24.612;2022-08-19T05:34:34;99599.56;;;32.07;44.58
11672;BME280;5892;43.412;24.612;2022-08-19T05:37:02;99547.78;;;31.97;42.74
11672;BME280;5892;43.412;24.612;2022-08-19T05:39:32;99600.94;;;32.29;42.66
11672;BME280;5892;43.412;24.612;2022-08-19T05:42:09;99604.41;;;32.24;42.93
11672;BME280;5892;43.412;24.612;2022-08-19T05:44:39;99600.94;;;32.38;41.71
11672;BME280;5892;43.412;24.612;2022-08-19T05:47:10;99577.69;;;31.89;42.12
11672;BME280;5892;43.412;24.612;2022-08-19T05:49:38;99530.78;;;31.51;42.44
11672;BME280;5892;43.412;24.612;2022-08-19T05:52:10;99612.19;;;31.87;42.92
11672;BME280;5892;43.412;24.612;2022-08-19T05:54:38;99594.22;;;31.90;42.35
11672;BME280;5892;43.412;24.612;2022-08-19T05:57:09;99607.28;;;32.06;41.94
11672;BME280;5892;43.412;24.612;2022-08-19T05:59:36;99612.78;;;32.10;41.26
11672;BME280;5892;43.412;24.612;2022-08-19T06:02:04;99600.53;;;32.13;40.74
11672;BME280;5892;43.412;24.612;2022-08-19T06:04:39;99486.44;;;31.39;39.85
11672;BME280;5892;43.412;24.612;2022-08-19T06:07:08;99611.38;;;32.23;39.63
11672;BME280;5892;43.412;24.612;2022-08-19T06:09:35;99621.59;;;32.30;39.34
11672;BME280;5892;43.412;24.612;2022-08-19T06:12:05;99564.28;;;31.98;39.55
11672;BME280;5892;43.412;24.612;2022-08-19T06:14:35;99618.56;;;32.43;39.08
11672;BME280;5892;43.412;24.612;2022-08-19T06:17:03;99607.84;;;32.47;38.63
11672;BME280;5892;43.412;24.612;2022-08-19T06:19:31;99618.53;;;32.52;38.43
11672;BME280;5892;43.412;24.612;2022-08-19T06:21:59;99608.91;;;32.58;37.46
11672;BME280;5892;43.412;24.612;2022-08-19T06:24:29;99621.63;;;32.81;37.37
11672;BME280;5892;43.412;24.612;2022-08-19T06:26:58;99615.97;;;32.72;37.70
11672;BME280;5892;43.412;24.612;2022-08-19T06:29:27;99560.16;;;32.78;37.13
11672;BME280;5892;43.412;24.612;2022-08-19T06:32:01;99595.09;;;33.26;36.19
11672;BME280;5892;43.412;24.612;2022-08-19T06:34:32;99622.16;;;33.36;36.23
11672;BME280;5892;43.412;24.612;2022-08-19T06:37:00;99602.59;;;33.38;36.16
11672;BME280;5892;43.412;24.612;2022-08-19T06:39:31;99612.19;;;33.41;35.04
11672;BME280;5892;43.412;24.612;2022-08-19T06:42:02;99606.88;;;33.34;35.92
11672;BME280;5892;43.412;24.612;2022-08-19T06:44:34;99585.19;;;33.22;35.62
11672;BME280;5892;43.412;24.612;2022-08-19T06:47:06;99601.50;;;33.36;35.15
11672;BME280;5892;43.412;24.612;2022-08-19T06:49:35;99607.34;;;33.56;34.88
11672;BME280;5892;43.412;24.612;2022-08-19T06:52:03;99604.41;;;33.74;34.79
11672;BME280;5892;43.412;24.612;2022-08-19T06:54:31;99591.44;;;33.73;34.64
11672;BME280;5892;43.412;24.612;2022-08-19T06:57:00;99590.19;;;33.74;33.92
11672;BME280;5892;43.412;24.612;2022-08-19T06:59:30;99602.63;;;33.77;34.20
11672;BME280;5892;43.412;24.612;2022-08-19T07:02:02;99546.09;;;33.16;33.76
11672;BME280;5892;43.412;24.612;2022-08-19T07:04:35;99602.59;;;33.38;34.44
11672;BME280;5892;43.412;24.612;2022-08-19T07:07:05;99567.78;;;33.29;34.36
11672;BME280;5892;43.412;24.612;2022-08-19T07:09:35;99608.13;;;33.80;33.74
11672;BME280;5892;43.412;24.612;2022-08-19T07:12:06;99605.56;;;33.44;33.91
11672;BME280;5892;43.412;24.612;2022-08-19T07:14:35;99614.47;;;33.51;34.64
11672;BME280;5892;43.412;24.612;2022-08-19T07:17:06;99523.38;;;33.16;33.51
11672;BME280;5892;43.412;24.612;2022-08-19T07:19:39;99604.41;;;33.74;33.43
11672;BME280;5892;43.412;24.612;2022-08-19T07:22:07;99584.31;;;33.92;32.94
11672;BME280;5892;43.412;24.612;2022-08-19T07:24:36;99569.25;;;34.01;33.01
11672;BME280;5892;43.412;24.612;2022-08-19T07:27:06;99565.91;;;33.88;32.51
11672;BME280;5892;43.412;24.612;2022-08-19T07:29:36;99588.75;;;34.08;32.21
11672;BME280;5892;43.412;24.612;2022-08-19T07:32:05;99604.19;;;34.31;32.45
11672;BME280;5892;43.412;24.612;2022-08-19T07:34:36;99624.59;;;34.44;32.18
11672;BME280;5892;43.412;24.612;2022-08-19T07:37:05;99616.78;;;33.86;33.17
11672;BME280;5892;43.412;24.612;2022-08-19T07:39:37;99595.00;;;33.83;33.48
11672;BME280;5892;43.412;24.612;2022-08-19T07:42:10;99558.72;;;33.78;32.78
11672;BME280;5892;43.412;24.612;2022-08-19T07:44:39;99598.59;;;34.07;32.42
11672;BME280;5892;43.412;24.612;2022-08-19T07:47:07;99618.66;;;34.18;32.76
11672;BME280;5892;43.412;24.612;2022-08-19T07:49:34;99623.00;;;34.28;32.74
11672;BME280;5892;43.412;24.612;2022-08-19T07:52:06;99628.13;;;34.39;32.25
11672;BME280;5892;43.412;24.612;2022-08-19T07:54:39;99610.31;;;34.38;32.76
11672;BME280;5892;43.412;24.612;2022-08-19T07:57:13;99578.91;;;34.33;32.49
11672;BME280;5892;43.412;24.612;2022-08-19T07:59:41;99630.69;;;34.81;31.76
11672;BME280;5892;43.412;24.612;2022-08-19T08:02:09;99612.25;;;34.47;31.52
11672;BME280;5892;43.412;24.612;2022-08-19T08:04:36;99595.66;;;34.31;31.71
11672;BME280;5892;43.412;24.612;2022-08-19T08:07:22;99612.63;;;34.40;31.39
11672;BME280;5892;43.412;24.612;2022-08-19T08:10:07;99601.16;;;34.34;31.30
11672;BME280;5892;43.412;24.612;2022-08-19T08:12:38;99617.56;;;34.69;30.76
11672;BME280;5892;43.412;24.612;2022-08-19T08:15:11;99587.00;;;34.84;30.47
11672;BME280;5892;43.412;24.612;2022-08-19T08:17:42;99614.41;;;35.16;30.22
11672;BME280;5892;43.412;24.612;2022-08-19T08:20:10;99607.41;;;35.32;29.89
11672;BME280;5892;43.412;24.612;2022-08-19T08:22:43;99610.75;;;35.31;30.29
11672;BME280;5892;43.412;24.612;2022-08-19T08:25:27;99605.44;;;35.38;29.53
11672;BME280;5892;43.412;24.612;2022-08-19T08:27:57;99579.41;;;35.31;29.19
11672;BME280;5892;43.412;24.612;2022-08-19T08:30:27;99611.84;;;35.74;29.04
11672;BME280;5892;43.412;24.612;2022-08-19T08:32:58;99614.16;;;35.55;28.53
11672;BME280;5892;43.412;24.612;2022-08-19T08:35:25;99619.38;;;35.56;27.66
11672;BME280;5892;43.412;24.612;2022-08-19T08:37:54;99608.56;;;35.81;28.00
11672;BME280;5892;43.412;24.612;2022-08-19T08:40:28;99602.13;;;35.86;28.37
11672;BME280;5892;43.412;24.612;2022-08-19T08:43:00;99598.00;;;35.26;29.51
11672;BME280;5892;43.412;24.612;2022-08-19T08:45:46;99617.94;;;35.26;29.67
11672;BME280;5892;43.412;24.612;2022-08-19T08:48:19;99509.53;;;34.95;29.12
11672;BME280;5892;43.412;24.612;2022-08-19T08:50:56;99599.28;;;35.45;29.02
11672;BME280;5892;43.412;24.612;2022-08-19T08:53:26;99597.84;;;35.55;28.90
11672;BME280;5892;43.412;24.612;2022-08-19T08:55:53;99599.13;;;35.69;29.14
11672;BME280;5892;43.412;24.612;2022-08-19T08:58:26;99597.44;;;35.83;29.03
11672;BME280;5892;43.412;24.612;2022-08-19T09:00:56;99569.16;;;35.39;29.04
11672;BME280;5892;43.412;24.612;2022-08-19T09:03:27;99597.16;;;35.40;29.53
11672;BME280;5892;43.412;24.612;2022-08-19T09:06:00;99598.84;;;34.97;29.50
11672;BME280;5892;43.412;24.612;2022-08-19T09:08:58;99474.94;;;34.32;28.95
11672;BME280;5892;43.412;24.612;2022-08-19T09:11:55;99566.09;;;35.42;29.04
11672;BME280;5892;43.412;24.612;2022-08-19T09:14:35;99577.38;;;35.72;28.44
11672;BME280;5892;43.412;24.612;2022-08-19T09:17:08;99559.31;;;35.60;28.51
11672;BME280;5892;43.412;24.612;2022-08-19T09:19:46;99582.56;;;35.73;28.48
11672;BME280;5892;43.412;24.612;2022-08-19T09:22:14;99581.28;;;35.74;28.72
11672;BME280;5892;43.412;24.612;2022-08-19T09:24:45;99557.63;;;35.68;28.37
11672;BME280;5892;43.412;24.612;2022-08-19T09:27:12;99581.50;;;35.96;28.44
11672;BME280;5892;43.412;24.612;2022-08-19T09:29:40;99543.72;;;35.76;28.13
11672;BME280;5892;43.412;24.612;2022-08-19T09:32:08;99584.22;;;35.80;28.40
11672;BME280;5892;43.412;24.612;2022-08-19T09:35:21;99465.53;;;35.16;28.41
11672;BME280;5892;43.412;24.612;2022-08-19T09:38:05;99573.13;;;36.13;28.05
11672;BME280;5892;43.412;24.612;2022-08-19T09:43:44;99570.78;;;35.86;28.44
11672;BME280;5892;43.412;24.612;2022-08-19T09:46:12;99523.22;;;35.72;28.25
11672;BME280;5892;43.412;24.612;2022-08-19T09:48:41;99572.63;;;35.89;28.31
11672;BME280;5892;43.412;24.612;2022-08-19T09:51:12;99560.09;;;35.60;28.70
11672;BME280;5892;43.412;24.612;2022-08-19T09:53:42;99508.25;;;35.56;28.83
11672;BME280;5892;43.412;24.612;2022-08-19T09:56:11;99516.31;;;35.58;28.41
11672;BME280;5892;43.412;24.612;2022-08-19T09:58:44;99559.50;;;35.97;27.99
11672;BME280;5892;43.412;24.612;2022-08-19T10:01:27;99512.53;;;35.92;27.71
11672;BME280;5892;43.412;24.612;2022-08-19T10:03:57;99538.06;;;36.33;27.98
11672;BME280;5892;43.412;24.612;2022-08-19T10:06:27;99541.84;;;36.19;28.18
11672;BME280;5892;43.412;24.612;2022-08-19T10:09:08;99536.38;;;36.46;27.39
11672;BME280;5892;43.412;24.612;2022-08-19T10:11:39;99480.66;;;35.94;27.84
11672;BME280;5892;43.412;24.612;2022-08-19T10:17:44;99526.69;;;36.38;27.96
11672;BME280;5892;43.412;24.612;2022-08-19T10:20:15;99534.19;;;36.62;27.70
11672;BME280;5892;43.412;24.612;2022-08-19T10:22:56;99520.25;;;36.75;27.78
11672;BME280;5892;43.412;24.612;2022-08-19T10:25:37;99524.91;;;37.09;27.32
11672;BME280;5892;43.412;24.612;2022-08-19T10:28:09;99522.94;;;37.38;27.02
11672;BME280;5892;43.412;24.612;2022-08-19T10:30:38;99479.47;;;37.17;26.53
11672;BME280;5892;43.412;24.612;2022-08-19T10:33:09;99525.03;;;37.43;27.04
11672;BME280;5892;43.412;24.612;2022-08-19T10:35:41;99495.31;;;37.12;27.01
11672;BME280;5892;43.412;24.612;2022-08-19T10:38:10;99505.50;;;36.45;27.12
11672;BME280;5892;43.412;24.612;2022-08-19T10:40:38;99525.28;;;35.51;28.60
11672;BME280;5892;43.412;24.612;2022-08-19T10:43:06;99514.88;;;35.68;28.55
11672;BME280;5892;43.412;24.612;2022-08-19T10:45:33;99517.94;;;35.44;29.25
11672;BME280;5892;43.412;24.612;2022-08-19T10:48:03;99527.50;;;35.41;29.47
11672;BME280;5892;43.412;24.612;2022-08-19T10:50:34;99520.06;;;35.49;29.29
11672;BME280;5892;43.412;24.612;2022-08-19T10:53:20;99520.47;;;35.83;28.98
11672;BME280;5892;43.412;24.612;2022-08-19T10:55:51;99500.09;;;36.16;28.31
11672;BME280;5892;43.412;24.612;2022-08-19T10:58:42;99503.88;;;36.38;26.94
11672;BME280;5892;43.412;24.612;2022-08-19T11:01:10;99467.28;;;36.68;26.62
11672;BME280;5892;43.412;24.612;2022-08-19T11:03:37;99512.25;;;37.21;26.61
11672;BME280;5892;43.412;24.612;2022-08-19T11:06:08;99475.06;;;37.10;25.89
11672;BME280;5892;43.412;24.612;2022-08-19T11:08:35;99497.19;;;37.26;26.04
11672;BME280;5892;43.412;24.612;2022-08-19T11:11:06;99478.53;;;37.37;26.01
11672;BME280;5892;43.412;24.612;2022-08-19T11:13:36;99507.50;;;37.78;25.82
11672;BME280;5892;43.412;24.612;2022-08-19T11:16:06;99512.91;;;37.59;26.20
11672;BME280;5892;43.412;24.612;2022-08-19T11:18:39;99506.03;;;37.28;26.43
11672;BME280;5892;43.412;24.612;2022-08-19T11:21:13;99504.31;;;37.00;26.65
11672;BME280;5892;43.412;24.612;2022-08-19T11:23:43;99506.19;;;36.66;27.74
11672;BME280;5892;43.412;24.612;2022-08-19T11:26:11;99453.47;;;36.24;27.06
11672;BME280;5892;43.412;24.612;2022-08-19T11:28:39;99509.47;;;36.90;27.59
11672;BME280;5892;43.412;24.612;2022-08-19T11:31:34;99494.63;;;37.40;26.96
11672;BME280;5892;43.412;24.612;2022-08-19T11:34:30;99484.34;;;37.81;25.31
11672;BME280;5892;43.412;24.612;2022-08-19T11:37:01;99497.91;;;37.97;24.90
11672;BME280;5892;43.412;24.612;2022-08-19T11:39:31;99466.09;;;37.51;24.60
11672;BME280;5892;43.412;24.612;2022-08-19T11:41:59;99492.56;;;37.40;25.38
11672;BME280;5892;43.412;24.612;2022-08-19T11:44:50;99486.19;;;37.73;24.32
11672;BME280;5892;43.412;24.612;2022-08-19T11:50:14;99415.91;;;37.44;24.99
11672;BME280;5892;43.412;24.612;2022-08-19T11:52:43;99466.41;;;37.81;25.11
11672;BME280;5892;43.412;24.612;2022-08-19T11:55:13;99430.72;;;37.43;24.78
11672;BME280;5892;43.412;24.612;2022-08-19T11:58:32;99344.44;;;36.51;25.56
11672;BME280;5892;43.412;24.612;2022-08-19T12:01:55;99416.66;;;37.22;25.86
11672;BME280;5892;43.412;24.612;2022-08-19T12:04:24;99463.56;;;37.81;26.15
11672;BME280;5892;43.412;24.612;2022-08-19T12:06:54;99387.06;;;37.48;25.24
11672;BME280;5892;43.412;24.612;2022-08-19T12:09:24;99453.97;;;37.89;25.22
11672;BME280;5892;43.412;24.612;2022-08-19T12:11:51;99445.72;;;36.62;26.76
11672;BME280;5892;43.412;24.612;2022-08-19T12:14:19;99451.25;;;36.82;26.71
11672;BME280;5892;43.412;24.612;2022-08-19T12:16:46;99442.47;;;36.91;26.32
11672;BME280;5892;43.412;24.612;2022-08-19T12:19:15;99444.28;;;36.88;26.56
11672;BME280;5892;43.412;24.612;2022-08-19T12:21:43;99331.16;;;36.00;26.67
11672;BME280;5892;43.412;24.612;2022-08-19T12:24:17;99437.44;;;36.69;26.42
11672;BME280;5892;43.412;24.612;2022-08-19T12:26:50;99380.13;;;36.73;26.41
11672;BME280;5892;43.412;24.612;2022-08-19T12:29:19;99445.53;;;37.36;25.82
11672;BME280;5892;43.412;24.612;2022-08-19T12:31:47;99440.00;;;37.10;26.40
11672;BME280;5892;43.412;24.612;2022-08-19T12:34:14;99438.59;;;36.94;26.73
11672;BME280;5892;43.412;24.612;2022-08-19T12:36:41;99403.38;;;36.60;26.40
11672;BME280;5892;43.412;24.612;2022-08-19T12:39:08;99432.03;;;36.77;26.27
11672;BME280;5892;43.412;24.612;2022-08-19T12:41:39;99358.59;;;36.77;26.21
11672;BME280;5892;43.412;24.612;2022-08-19T12:44:08;99424.78;;;37.46;25.68
11672;BME280;5892;43.412;24.612;2022-08-19T12:46:37;99380.06;;;37.49;25.90
11672;BME280;5892;43.412;24.612;2022-08-19T12:49:05;99382.72;;;37.69;25.42
11672;BME280;5892;43.412;24.612;2022-08-19T12:51:32;99428.47;;;38.30;25.04
11672;BME280;5892;43.412;24.612;2022-08-19T12:54:02;99391.31;;;38.08;24.59
11672;BME280;5892;43.412;24.612;2022-08-19T12:56:30;99452.13;;;37.97;25.01
11672;BME280;5892;43.412;24.612;2022-08-19T12:59:01;99424.28;;;37.59;25.35
11672;BME280;5892;43.412;24.612;2022-08-19T13:01:31;99404.09;;;37.03;26.48
11672;BME280;5892;43.412;24.612;2022-08-19T13:03:58;99421.75;;;37.02;26.62
11672;BME280;5892;43.412;24.612;2022-08-19T13:06:26;99429.00;;;36.97;26.61
11672;BME280;5892;43.412;24.612;2022-08-19T13:08:55;99396.28;;;36.98;26.31
11672;BME280;5892;43.412;24.612;2022-08-19T13:11:23;99418.75;;;37.27;25.99
11672;BME280;5892;43.412;24.612;2022-08-19T13:13:52;99425.16;;;37.06;26.35
11672;BME280;5892;43.412;24.612;2022-08-19T13:16:22;99422.13;;;36.67;26.41
11672;BME280;5892;43.412;24.612;2022-08-19T13:18:56;99394.59;;;36.21;27.09
11672;BME280;5892;43.412;24.612;2022-08-19T13:21:26;99413.75;;;36.58;26.87
11672;BME280;5892;43.412;24.612;2022-08-19T13:23:56;99360.53;;;36.55;27.00
11672;BME280;5892;43.412;24.612;2022-08-19T13:26:24;99404.59;;;36.96;26.23
11672;BME280;5892;43.412;24.612;2022-08-19T13:29:02;99397.09;;;37.04;26.03
11672;BME280;5892;43.412;24.612;2022-08-19T13:31:46;99415.28;;;37.07;26.43
11672;BME280;5892;43.412;24.612;2022-08-19T13:34:33;99412.22;;;37.10;26.28
11672;BME280;5892;43.412;24.612;2022-08-19T13:37:03;99399.19;;;37.04;26.05
11672;BME280;5892;43.412;24.612;2022-08-19T13:39:33;99393.06;;;36.68;26.95
11672;BME280;5892;43.412;24.612;2022-08-19T13:42:01;99403.53;;;36.40;27.18
11672;BME280;5892;43.412;24.612;2022-08-19T13:44:30;99359.69;;;36.37;26.94
11672;BME280;5892;43.412;24.612;2022-08-19T13:47:00;99372.28;;;36.62;26.50
11672;BME280;5892;43.412;24.612;2022-08-19T13:49:34;99401.75;;;37.02;26.00
11672;BME280;5892;43.412;24.612;2022-08-19T13:52:03;99387.28;;;37.11;25.23
11672;BME280;5892;43.412;24.612;2022-08-19T13:54:53;99395.59;;;37.09;25.41
11672;BME280;5892;43.412;24.612;2022-08-19T13:57:22;99378.91;;;37.07;25.74
11672;BME280;5892;43.412;24.612;2022-08-19T14:02:51;99398.25;;;36.70;26.41
11672;BME280;5892;43.412;24.612;2022-08-19T14:05:21;99398.28;;;36.27;27.58
11672;BME280;5892;43.412;24.612;2022-08-19T14:07:51;99338.31;;;35.85;27.30
11672;BME280;5892;43.412;24.612;2022-08-19T14:10:20;99391.63;;;36.10;27.14
11672;BME280;5892;43.412;24.612;2022-08-19T14:12:48;99336.38;;;35.71;27.59
11672;BME280;5892;43.412;24.612;2022-08-19T14:15:15;99343.41;;;35.75;27.47
11672;BME280;5892;43.412;24.612;2022-08-19T14:17:45;99397.78;;;36.03;27.37
11672;BME280;5892;43.412;24.612;2022-08-19T14:20:16;99389.97;;;35.98;27.02
11672;BME280;5892;43.412;24.612;2022-08-19T14:23:00;99272.81;;;35.28;27.55
11672;BME280;5892;43.412;24.612;2022-08-19T14:25:29;99392.53;;;35.96;27.42
11672;BME280;5892;43.412;24.612;2022-08-19T14:27:57;99368.75;;;35.99;27.19
11672;BME280;5892;43.412;24.612;2022-08-19T14:30:27;99341.72;;;35.89;27.53
11672;BME280;5892;43.412;24.612;2022-08-19T14:32:57;99378.34;;;36.38;26.83
11672;BME280;5892;43.412;24.612;2022-08-19T14:35:25;99335.19;;;36.20;26.73
11672;BME280;5892;43.412;24.612;2022-08-19T14:37:53;99374.75;;;36.49;26.57
11672;BME280;5892;43.412;24.612;2022-08-19T14:40:27;99374.78;;;36.55;26.50
11672;BME280;5892;43.412;24.612;2022-08-19T14:42:57;99309.69;;;36.05;26.44
11672;BME280;5892;43.412;24.612;2022-08-19T14:45:30;99325.75;;;36.08;26.74
11672;BME280;5892;43.412;24.612;2022-08-19T14:47:57;99350.38;;;36.05;27.11
11672;BME280;5892;43.412;24.612;2022-08-19T14:50:26;99304.00;;;35.42;26.84
11672;BME280;5892;43.412;24.612;2022-08-19T14:52:58;99371.78;;;35.90;27.08